Time;durP1;ratioP1;P1;durP2;ratioP2;P2;SDS_P1;SDS_P2;PMS_P1;PMS_P2;Temp;Humidity;BMP_temperature;BMP_pressure;BME280_temperature;BME280_humidity;BME280_pressure;Samples;Min_cycle;Max_cycle;Signal;HPM_P1;HPM_P2
2021/05/10 00:01:24;;;;;;;2.90;2.70;;;16.80;93.80;;;;;;5062115;28;20653;-53
2021/05/10 00:03:50;;;;;;;2.77;2.40;;;16.70;93.70;;;;;;5064489;28;20569;-53
2021/05/10 00:06:16;;;;;;;3.20;2.90;;;16.50;94.10;;;;;;5067457;28;20197;-53
2021/05/10 00:08:43;;;;;;;2.53;2.33;;;16.60;94.10;;;;;;5068283;28;20231;-54
2021/05/10 00:11:08;;;;;;;2.30;2.10;;;16.80;94.40;;;;;;5067485;28;20265;-53
2021/05/10 00:13:34;;;;;;;2.80;2.50;;;16.60;94.10;;;;;;5066908;28;20248;-53
2021/05/10 00:16:00;;;;;;;3.20;2.58;;;16.60;94.30;;;;;;5067448;28;20184;-53
2021/05/10 00:18:26;;;;;;;2.90;2.70;;;16.90;94.30;;;;;;5067076;28;20188;-53
2021/05/10 00:20:52;;;;;;;2.73;2.53;;;16.70;94.50;;;;;;5068713;28;20512;-53
2021/05/10 00:23:18;;;;;;;3.10;2.47;;;16.80;94.60;;;;;;5067017;28;20204;-53
2021/05/10 00:25:45;;;;;;;5.50;2.60;;;16.70;94.50;;;;;;5071752;28;20657;-53
2021/05/10 00:28:12;;;;;;;2.70;2.50;;;16.90;94.50;;;;;;5068280;28;20203;-53
2021/05/10 00:30:39;;;;;;;2.50;2.30;;;16.90;94.60;;;;;;5067165;28;20209;-54
2021/05/10 00:33:05;;;;;;;2.40;2.20;;;16.90;94.60;;;;;;5063482;28;20224;-53
2021/05/10 00:35:31;;;;;;;2.88;2.67;;;16.80;94.50;;;;;;5067423;28;20181;-54
2021/05/10 00:37:58;;;;;;;2.70;2.50;;;16.70;94.70;;;;;;5066314;28;20179;-53
2021/05/10 00:40:26;;;;;;;2.85;2.55;;;16.70;95.10;;;;;;5056738;28;20173;-53
2021/05/10 00:42:51;;;;;;;3.05;2.75;;;16.80;95.40;;;;;;5070719;28;20296;-53
2021/05/10 00:45:17;;;;;;;4.80;3.00;;;16.50;95.40;;;;;;5067142;28;20674;-53
2021/05/10 00:47:44;;;;;;;2.83;2.63;;;16.60;95.40;;;;;;5069140;28;20234;-53
2021/05/10 00:50:10;;;;;;;2.55;2.30;;;16.40;95.50;;;;;;5059364;28;20177;-53
2021/05/10 00:52:36;;;;;;;3.10;2.60;;;16.40;95.90;;;;;;5067010;28;20201;-54
2021/05/10 00:55:08;;;;;;;4.05;2.80;;;16.40;96.10;;;;;;5066825;28;20173;-54
2021/05/10 00:57:37;;;;;;;16.85;3.97;;;16.50;96.30;;;;;;5068695;28;20277;-53
2021/05/10 01:00:08;;;;;;;3.33;3.03;;;16.40;96.50;;;;;;5063571;28;20185;-53
2021/05/10 01:02:35;;;;;;;4.53;2.95;;;16.10;96.90;;;;;;5070229;28;20181;-53
2021/05/10 01:05:01;;;;;;;2.85;2.65;;;16.10;97.50;;;;;;5070493;28;20193;-52
2021/05/10 01:07:27;;;;;;;3.22;2.78;;;16.30;97.80;;;;;;5071341;28;20177;-53
2021/05/10 01:09:53;;;;;;;2.90;2.60;;;16.00;97.80;;;;;;5070081;28;20173;-53
2021/05/10 01:12:18;;;;;;;3.60;3.33;;;15.80;97.80;;;;;;5069637;28;20246;-53
2021/05/10 01:14:44;;;;;;;2.67;2.47;;;16.10;98.30;;;;;;5070045;28;20662;-52
2021/05/10 01:17:10;;;;;;;2.80;2.60;;;16.10;98.50;;;;;;5070362;28;20180;-53
2021/05/10 01:19:36;;;;;;;2.77;2.50;;;16.00;98.80;;;;;;5069820;28;20604;-53
2021/05/10 01:22:04;;;;;;;2.97;2.70;;;15.90;99.40;;;;;;5069862;28;20181;-53
2021/05/10 01:24:31;;;;;;;2.70;2.50;;;15.90;99.30;;;;;;5069570;28;20402;-53
2021/05/10 01:26:57;;;;;;;2.92;2.72;;;16.00;99.30;;;;;;5066126;28;20182;-54
2021/05/10 01:29:23;;;;;;;2.60;2.40;;;15.90;99.30;;;;;;5068979;28;20229;-54
2021/05/10 01:31:48;;;;;;;3.25;2.95;;;15.80;99.00;;;;;;5069718;28;20192;-53
2021/05/10 01:34:14;;;;;;;4.00;2.80;;;15.50;99.00;;;;;;5069427;28;20686;-53
2021/05/10 01:36:40;;;;;;;2.92;2.72;;;15.50;99.30;;;;;;5070837;28;20224;-53
2021/05/10 01:39:06;;;;;;;2.60;2.40;;;15.70;99.90;;;;;;5066433;28;20587;-53
2021/05/10 01:41:33;;;;;;;2.67;2.42;;;15.40;99.90;;;;;;5069409;28;20268;-54
2021/05/10 01:43:58;;;;;;;3.83;2.80;;;15.60;99.90;;;;;;5069523;28;20203;-53
2021/05/10 01:46:24;;;;;;;3.40;2.53;;;15.60;99.90;;;;;;5069205;28;20603;-53
2021/05/10 01:48:50;;;;;;;3.07;2.87;;;15.60;99.90;;;;;;5069630;28;20188;-53
2021/05/10 01:51:15;;;;;;;3.50;2.50;;;15.00;99.90;;;;;;5072136;28;20194;-53
2021/05/10 01:53:45;;;;;;;3.70;3.00;;;15.40;99.90;;;;;;5068967;28;20470;-53
2021/05/10 01:56:11;;;;;;;3.28;2.90;;;15.20;99.90;;;;;;5063951;28;20180;-53
2021/05/10 01:58:36;;;;;;;5.13;2.90;;;15.40;99.90;;;;;;5067761;28;20189;-53
2021/05/10 02:01:02;;;;;;;2.87;2.67;;;15.40;99.90;;;;;;5068927;28;20189;-53
2021/05/10 02:03:28;;;;;;;2.93;2.33;;;15.20;99.90;;;;;;5068916;28;20247;-53
2021/05/10 02:05:54;;;;;;;3.13;2.93;;;15.10;99.90;;;;;;5061492;28;20177;-53
2021/05/10 02:08:20;;;;;;;2.88;2.50;;;14.90;99.90;;;;;;5073424;28;20189;-53
2021/05/10 02:10:49;;;;;;;3.83;3.00;;;15.00;99.90;;;;;;5068641;28;20199;-53
2021/05/10 02:13:18;;;;;;;3.40;2.90;;;15.00;99.90;;;;;;5068534;28;21046;-53
2021/05/10 02:15:46;;;;;;;3.10;2.55;;;15.00;99.90;;;;;;5068729;28;20279;-53
2021/05/10 02:18:14;;;;;;;3.45;3.15;;;15.30;99.90;;;;;;5068476;28;20188;-53
2021/05/10 02:20:41;;;;;;;2.70;2.50;;;15.00;99.90;;;;;;5068737;28;20210;-53
2021/05/10 02:23:21;;;;;;;3.25;3.05;;;14.90;99.90;;;;;;5068941;28;20207;-53
2021/05/10 02:25:52;;;;;;;3.25;3.05;;;14.80;99.90;;;;;;5074022;28;20183;-53
2021/05/10 02:28:20;;;;;;;3.03;2.72;;;15.20;99.90;;;;;;5068563;28;20200;-53
2021/05/10 02:30:47;;;;;;;2.92;2.70;;;15.20;99.90;;;;;;5070150;28;20177;-54
2021/05/10 02:33:18;;;;;;;4.28;3.38;;;15.00;99.90;;;;;;5066697;28;20959;-53
2021/05/10 02:35:45;;;;;;;3.13;2.88;;;14.90;99.90;;;;;;5068445;28;20185;-53
2021/05/10 02:38:12;;;;;;;3.70;3.00;;;15.00;99.90;;;;;;5068068;28;20289;-53
2021/05/10 02:40:37;;;;;;;2.80;2.60;;;14.80;99.90;;;;;;5069784;28;20276;-53
2021/05/10 02:43:04;;;;;;;2.77;2.57;;;14.90;99.90;;;;;;5068769;28;20288;-55
2021/05/10 02:45:30;;;;;;;3.10;2.90;;;14.90;99.90;;;;;;5068439;28;20435;-53
2021/05/10 02:47:56;;;;;;;6.57;2.83;;;14.80;99.90;;;;;;5068379;28;20211;-53
2021/05/10 02:50:23;;;;;;;3.92;2.58;;;14.80;99.90;;;;;;5060745;28;20466;-55
2021/05/10 02:52:51;;;;;;;3.00;2.70;;;15.10;99.90;;;;;;5068623;28;20614;-53
2021/05/10 02:55:17;;;;;;;3.40;3.10;;;15.20;99.90;;;;;;5068272;28;20185;-53
2021/05/10 02:57:44;;;;;;;5.07;3.00;;;14.90;99.90;;;;;;5068138;28;20173;-53
2021/05/10 03:00:12;;;;;;;2.90;2.70;;;14.90;99.90;;;;;;5067849;28;20189;-53
2021/05/10 03:02:38;;;;;;;3.25;3.05;;;14.70;99.90;;;;;;5061264;28;20177;-53
2021/05/10 03:05:05;;;;;;;3.50;3.20;;;14.70;99.90;;;;;;5068420;28;20314;-53
2021/05/10 03:07:32;;;;;;;3.13;2.72;;;14.90;99.90;;;;;;5067657;28;20438;-53
2021/05/10 03:09:58;;;;;;;3.35;3.05;;;14.70;99.90;;;;;;5067966;28;20185;-53
2021/05/10 03:12:23;;;;;;;3.30;3.00;;;14.80;99.90;;;;;;5069283;28;20276;-53
2021/05/10 03:14:49;;;;;;;3.67;3.07;;;14.80;99.90;;;;;;5059983;28;20196;-53
2021/05/10 03:17:14;;;;;;;3.83;2.90;;;14.50;99.90;;;;;;5068134;28;20223;-53
2021/05/10 03:19:40;;;;;;;4.47;4.07;;;14.40;99.90;;;;;;5060119;28;20275;-53
2021/05/10 03:22:06;;;;;;;4.37;3.57;;;14.80;99.90;;;;;;5067836;28;20211;-53
2021/05/10 03:24:31;;;;;;;3.20;2.90;;;14.60;99.90;;;;;;5067801;28;20215;-53
2021/05/10 03:26:57;;;;;;;3.50;3.20;;;15.00;99.90;;;;;;5068443;28;20627;-53
2021/05/10 03:29:22;;;;;;;5.07;3.63;;;14.90;99.90;;;;;;5068320;28;20188;-53
2021/05/10 03:31:48;;;;;;;3.33;3.00;;;14.80;99.90;;;;;;5067569;28;20200;-53
2021/05/10 03:34:14;;;;;;;3.23;2.93;;;14.80;99.90;;;;;;5067326;28;20759;-53
2021/05/10 03:36:39;;;;;;;3.77;2.90;;;14.70;99.90;;;;;;5068871;28;20587;-53
2021/05/10 03:39:05;;;;;;;3.80;3.10;;;14.90;99.90;;;;;;5067743;28;20191;-53
2021/05/10 03:41:31;;;;;;;3.10;2.80;;;14.90;99.90;;;;;;5067627;28;20185;-53
2021/05/10 03:43:57;;;;;;;2.57;2.37;;;15.10;99.20;;;;;;5060336;28;20490;-53
2021/05/10 03:46:24;;;;;;;5.55;2.60;;;15.20;98.30;;;;;;5067386;28;20526;-53
2021/05/10 03:48:49;;;;;;;2.40;2.20;;;15.20;97.50;;;;;;5066992;28;20189;-53
2021/05/10 03:51:15;;;;;;;2.90;2.70;;;15.70;97.40;;;;;;5071742;28;20280;-53
2021/05/10 03:53:44;;;;;;;3.03;2.83;;;15.50;96.80;;;;;;5066552;28;20216;-52
2021/05/10 03:56:12;;;;;;;4.13;2.97;;;15.70;96.60;;;;;;5058237;28;20172;-53
2021/05/10 03:58:39;;;;;;;3.35;3.05;;;15.80;96.50;;;;;;5067260;28;20243;-53
2021/05/10 04:01:05;;;;;;;4.40;4.00;;;15.90;96.50;;;;;;5062110;28;20263;-53
2021/05/10 04:03:39;;;;;;;3.92;3.30;;;16.10;96.40;;;;;;5058407;28;20208;-54
2021/05/10 04:06:32;;;;;;;6.00;3.00;;;16.00;96.20;;;;;;5067303;28;20180;-53
2021/05/10 04:14:28;;;;;;;10.10;4.43;;;16.40;95.80;;;;;;5068569;28;20750;-53
2021/05/10 04:16:53;;;;;;;3.95;2.80;;;16.20;95.60;;;;;;5067634;28;20181;-53
2021/05/10 04:19:19;;;;;;;3.27;2.93;;;16.30;95.60;;;;;;5069878;28;20185;-53
2021/05/10 04:21:45;;;;;;;3.40;3.10;;;16.10;95.40;;;;;;5067833;28;20731;-53
2021/05/10 04:24:10;;;;;;;2.83;2.63;;;16.20;95.60;;;;;;5067885;28;20210;-53
2021/05/10 04:26:36;;;;;;;3.10;2.80;;;16.40;95.60;;;;;;5063851;28;20200;-53
2021/05/10 04:29:02;;;;;;;5.70;5.20;;;16.50;95.30;;;;;;5062759;28;20443;-55
2021/05/10 04:31:28;;;;;;;7.22;3.40;;;16.40;95.10;;;;;;5066714;28;20193;-55
2021/05/10 04:33:53;;;;;;;5.20;3.13;;;16.40;95.60;;;;;;5070807;28;20216;-57
2021/05/10 04:36:19;;;;;;;3.17;2.97;;;16.60;95.80;;;;;;5067076;28;20557;-56
2021/05/10 04:38:45;;;;;;;3.63;3.20;;;16.50;95.80;;;;;;5067845;28;20177;-57
2021/05/10 04:41:11;;;;;;;3.85;3.17;;;16.60;95.80;;;;;;5071052;28;20194;-56
2021/05/10 04:43:37;;;;;;;3.83;3.37;;;16.50;95.80;;;;;;5071683;28;20208;-53
2021/05/10 04:46:03;;;;;;;5.15;3.28;;;16.70;96.00;;;;;;5064985;28;20674;-56
2021/05/10 04:48:29;;;;;;;3.50;3.20;;;16.80;95.90;;;;;;5071037;28;20224;-53
2021/05/10 04:50:55;;;;;;;3.05;2.80;;;17.00;95.30;;;;;;5069459;28;20446;-52
2021/05/10 04:53:21;;;;;;;4.68;2.97;;;17.10;95.80;;;;;;5069030;28;20282;-57
2021/05/10 04:55:47;;;;;;;3.80;3.50;;;17.10;94.80;;;;;;5069494;28;20507;-54
2021/05/10 04:58:13;;;;;;;3.97;3.00;;;17.10;94.60;;;;;;5068755;28;20191;-55
2021/05/10 05:00:39;;;;;;;4.28;3.00;;;17.20;94.80;;;;;;5067030;28;20185;-54
2021/05/10 05:03:05;;;;;;;4.63;3.07;;;17.10;94.50;;;;;;5063507;28;20262;-54
2021/05/10 05:05:30;;;;;;;4.67;2.67;;;17.60;94.40;;;;;;5065836;28;20626;-58
2021/05/10 05:07:56;;;;;;;5.30;3.03;;;17.80;93.80;;;;;;5066028;28;20565;-50
2021/05/10 05:10:22;;;;;;;5.97;3.87;;;17.60;93.50;;;;;;5068846;28;20185;-50
2021/05/10 05:12:51;;;;;;;5.70;4.43;;;17.60;93.60;;;;;;5065816;28;20306;-51
2021/05/10 05:15:18;;;;;;;4.22;3.53;;;17.90;93.60;;;;;;5066376;28;20195;-52
2021/05/10 05:17:43;;;;;;;3.53;3.22;;;17.90;93.40;;;;;;5067045;28;20188;-52
2021/05/10 05:20:10;;;;;;;4.00;3.10;;;17.80;93.40;;;;;;5068422;28;20185;-52
2021/05/10 05:22:36;;;;;;;3.55;3.20;;;17.90;93.40;;;;;;5070168;28;20184;-51
2021/05/10 05:25:07;;;;;;;3.87;3.47;;;18.00;93.40;;;;;;5069731;28;20192;-52
2021/05/10 05:27:33;;;;;;;8.20;3.90;;;18.00;93.30;;;;;;5068364;28;20282;-52
2021/05/10 05:29:58;;;;;;;3.80;3.33;;;18.10;93.40;;;;;;5066585;28;20189;-51
2021/05/10 05:32:24;;;;;;;4.67;4.27;;;18.10;94.10;;;;;;5068649;28;20976;-52
2021/05/10 05:34:50;;;;;;;4.93;3.10;;;18.10;93.40;;;;;;5067242;28;20595;-52
2021/05/10 05:37:16;;;;;;;4.15;3.47;;;18.10;93.20;;;;;;5074163;28;20177;-53
2021/05/10 05:39:42;;;;;;;4.77;3.20;;;18.10;93.10;;;;;;5065602;28;20204;-55
2021/05/10 05:42:07;;;;;;;2.87;2.60;;;18.20;93.10;;;;;;5064086;28;20203;-56
2021/05/10 05:44:36;;;;;;;5.43;4.50;;;18.30;92.80;;;;;;5068017;28;20365;-56
2021/05/10 05:47:04;;;;;;;9.68;6.50;;;18.40;92.30;;;;;;5067424;28;20262;-57
2021/05/10 05:49:31;;;;;;;5.53;3.28;;;18.70;92.70;;;;;;5066643;28;20188;-56
2021/05/10 05:51:57;;;;;;;3.88;3.47;;;18.80;91.80;;;;;;5068056;28;20192;-57
2021/05/10 05:54:23;;;;;;;4.93;3.05;;;18.80;91.70;;;;;;5070448;28;20220;-55
2021/05/10 05:56:51;;;;;;;3.60;2.90;;;18.90;91.40;;;;;;5068615;28;20186;-55
2021/05/10 05:59:17;;;;;;;2.55;2.30;;;19.00;91.20;;;;;;5064119;28;20185;-53
2021/05/10 06:01:42;;;;;;;3.33;3.03;;;19.00;91.20;;;;;;5067449;28;20188;-51
2021/05/10 06:04:08;;;;;;;7.33;3.37;;;19.10;91.10;;;;;;5068274;28;20955;-53
2021/05/10 06:06:34;;;;;;;11.63;3.20;;;19.20;91.20;;;;;;5066758;28;20180;-52
2021/05/10 06:08:59;;;;;;;5.73;3.37;;;19.20;91.20;;;;;;5062400;28;20291;-53
2021/05/10 06:11:25;;;;;;;4.43;3.57;;;19.30;91.20;;;;;;5065892;28;20243;-53
2021/05/10 06:13:54;;;;;;;6.20;3.23;;;19.40;90.60;;;;;;5067603;28;20213;-52
2021/05/10 06:16:19;;;;;;;5.45;3.55;;;19.40;90.60;;;;;;5065299;28;20195;-52
2021/05/10 06:18:45;;;;;;;5.07;3.63;;;19.50;90.80;;;;;;5065754;28;20756;-53
2021/05/10 06:21:10;;;;;;;3.73;2.83;;;19.60;90.60;;;;;;5066898;28;20188;-53
2021/05/10 06:23:39;;;;;;;7.10;3.27;;;19.70;90.50;;;;;;5066794;28;20248;-52
2021/05/10 06:26:07;;;;;;;4.88;3.85;;;19.90;90.30;;;;;;5066868;28;20184;-55
2021/05/10 06:28:33;;;;;;;8.15;5.15;;;19.90;90.60;;;;;;5064134;28;20552;-54
2021/05/10 06:30:58;;;;;;;4.53;3.78;;;20.00;90.30;;;;;;5059810;28;20235;-54
2021/05/10 06:33:24;;;;;;;4.13;2.80;;;20.10;90.00;;;;;;5051700;28;20209;-52
2021/05/10 06:35:50;;;;;;;7.60;4.00;;;20.10;88.30;;;;;;5056651;28;20723;-53
2021/05/10 06:38:15;;;;;;;4.13;3.73;;;20.10;85.90;;;;;;5066841;28;20191;-53
2021/05/10 06:40:41;;;;;;;6.43;3.20;;;20.20;84.70;;;;;;5065402;28;20185;-57
2021/05/10 06:43:08;;;;;;;4.97;2.97;;;20.30;82.00;;;;;;5065981;28;20701;-55
2021/05/10 06:45:36;;;;;;;7.07;2.92;;;20.60;80.30;;;;;;5063724;28;20207;-54
2021/05/10 06:48:02;;;;;;;4.80;3.45;;;20.90;79.90;;;;;;5066321;28;20633;-54
2021/05/10 06:50:28;;;;;;;7.13;3.67;;;21.30;78.70;;;;;;5066543;28;20288;-53
2021/05/10 06:52:54;;;;;;;9.05;4.53;;;21.70;78.30;;;;;;5067262;28;20220;-55
2021/05/10 06:55:20;;;;;;;4.70;4.17;;;22.00;77.30;;;;;;5066308;28;20532;-54
2021/05/10 06:57:45;;;;;;;5.90;3.80;;;22.30;76.80;;;;;;5066295;28;20176;-53
2021/05/10 07:00:11;;;;;;;5.50;4.07;;;22.60;75.70;;;;;;5066015;28;20192;-54
2021/05/10 07:02:37;;;;;;;3.90;3.30;;;22.80;74.30;;;;;;5066295;28;20173;-55
2021/05/10 07:05:04;;;;;;;4.60;4.00;;;23.00;71.30;;;;;;5064573;28;20534;-53
2021/05/10 07:07:31;;;;;;;4.93;4.33;;;23.20;71.30;;;;;;5064254;28;20665;-52
2021/05/10 07:09:57;;;;;;;4.00;3.07;;;23.20;70.40;;;;;;5064801;28;20447;-53
2021/05/10 07:12:22;;;;;;;5.73;2.50;;;23.30;67.60;;;;;;5067448;28;20435;-53
2021/05/10 07:14:48;;;;;;;5.00;3.77;;;23.70;65.00;;;;;;5065546;28;20451;-53
2021/05/10 07:17:14;;;;;;;4.20;2.67;;;24.00;66.20;;;;;;5063057;28;20173;-54
2021/05/10 07:19:39;;;;;;;2.90;2.50;;;24.40;65.70;;;;;;5065007;28;20192;-54
2021/05/10 07:22:07;;;;;;;2.90;2.70;;;24.90;61.90;;;;;;5065384;28;20186;-54
2021/05/10 07:24:33;;;;;;;4.10;3.33;;;25.50;59.90;;;;;;5066262;28;20297;-55
2021/05/10 07:26:58;;;;;;;5.60;2.47;;;26.60;57.90;;;;;;5066129;28;20518;-55
2021/05/10 07:29:24;;;;;;;4.70;2.60;;;27.80;55.50;;;;;;5067072;28;20179;-55
2021/05/10 07:31:50;;;;;;;2.30;2.10;;;28.00;54.00;;;;;;5067051;28;20194;-56
2021/05/10 07:34:16;;;;;;;3.70;2.20;;;28.90;51.80;;;;;;5065757;28;20218;-55
2021/05/10 07:36:41;;;;;;;4.07;2.50;;;28.90;50.80;;;;;;5066801;28;20428;-53
2021/05/10 07:39:07;;;;;;;3.83;3.07;;;28.40;51.50;;;;;;5061799;28;20799;-52
2021/05/10 07:41:33;;;;;;;2.57;2.30;;;28.10;52.00;;;;;;5065711;28;20645;-52
2021/05/10 07:43:59;;;;;;;2.90;2.70;;;28.30;52.40;;;;;;5065026;28;20513;-51
2021/05/10 07:46:25;;;;;;;3.40;2.40;;;28.90;52.10;;;;;;5062498;28;20446;-53
2021/05/10 07:48:51;;;;;;;2.67;2.47;;;29.70;50.80;;;;;;5072472;28;20446;-52
2021/05/10 07:51:17;;;;;;;5.17;2.37;;;30.70;49.20;;;;;;5066999;28;20186;-54
2021/05/10 07:53:42;;;;;;;3.50;2.30;;;31.50;47.00;;;;;;5065895;28;20316;-53
2021/05/10 07:56:08;;;;;;;2.37;2.13;;;31.40;47.00;;;;;;5064718;28;20960;-53
2021/05/10 07:58:37;;;;;;;6.07;2.90;;;32.20;46.20;;;;;;5066711;28;20653;-54
2021/05/10 08:01:04;;;;;;;3.53;2.27;;;33.00;44.60;;;;;;5067311;28;20437;-52
2021/05/10 08:03:30;;;;;;;3.20;2.90;;;32.40;44.40;;;;;;5066789;28;21273;-51
2021/05/10 08:05:56;;;;;;;3.83;2.47;;;31.20;46.20;;;;;;5070000;28;20473;-51
2021/05/10 08:08:23;;;;;;;3.50;2.87;;;30.80;47.20;;;;;;5070994;28;20943;-50
2021/05/10 08:10:50;;;;;;;2.80;2.47;;;29.50;49.20;;;;;;5070719;28;20455;-50
2021/05/10 08:13:15;;;;;;;3.80;2.70;;;27.80;52.20;;;;;;5065031;28;20537;-51
2021/05/10 08:15:42;;;;;;;2.80;2.30;;;28.00;54.00;;;;;;5064388;28;20978;-50
2021/05/10 08:18:08;;;;;;;9.30;8.40;;;29.20;52.00;;;;;;5074172;28;20189;-53
2021/05/10 08:20:33;;;;;;;5.50;3.10;;;30.30;49.50;;;;;;5072729;28;20454;-54
2021/05/10 08:22:59;;;;;;;7.30;2.80;;;31.00;49.00;;;;;;5069802;28;20204;-52
2021/05/10 08:25:25;;;;;;;3.13;2.70;;;31.00;48.80;;;;;;5070358;28;20230;-51
2021/05/10 08:27:50;;;;;;;3.03;2.40;;;31.30;47.70;;;;;;5069817;28;20176;-52
2021/05/10 08:30:17;;;;;;;5.20;2.70;;;31.20;47.00;;;;;;5069485;28;20268;-52
2021/05/10 08:32:42;;;;;;;2.67;2.47;;;30.70;48.10;;;;;;5070535;28;20664;-52
2021/05/10 08:35:10;;;;;;;3.20;2.47;;;30.00;49.20;;;;;;5071316;28;20476;-51
2021/05/10 08:37:36;;;;;;;3.13;2.90;;;29.20;50.40;;;;;;5067677;28;20184;-55
2021/05/10 08:40:03;;;;;;;2.70;2.47;;;28.30;52.40;;;;;;5073460;28;20453;-51
2021/05/10 08:42:29;;;;;;;5.40;2.67;;;27.70;53.60;;;;;;5070183;28;21024;-53
2021/05/10 08:44:58;;;;;;;3.33;2.90;;;27.20;54.70;;;;;;5070961;28;20450;-51
2021/05/10 08:47:32;;;;;;;7.57;4.50;;;26.40;56.30;;;;;;5071304;28;20672;-51
2021/05/10 08:50:05;;;;;;;3.10;2.83;;;25.70;57.90;;;;;;5070485;28;20437;-50
2021/05/10 08:52:33;;;;;;;4.17;2.97;;;25.40;59.10;;;;;;5069782;28;20481;-50
2021/05/10 08:54:58;;;;;;;3.90;3.20;;;25.50;59.60;;;;;;5069560;28;20436;-49
2021/05/10 08:57:24;;;;;;;4.20;2.67;;;25.80;59.10;;;;;;5067103;28;21032;-53
2021/05/10 08:59:49;;;;;;;3.00;2.80;;;25.90;58.60;;;;;;5070504;28;20228;-50
2021/05/10 09:02:15;;;;;;;5.17;3.07;;;25.70;58.80;;;;;;5069513;28;20682;-50
2021/05/10 09:04:43;;;;;;;4.20;2.90;;;25.60;59.50;;;;;;5069384;28;20197;-50
2021/05/10 09:07:17;;;;;;;3.10;2.90;;;25.20;60.60;;;;;;5068630;28;20241;-50
2021/05/10 09:10:02;;;;;;;4.10;3.07;;;25.20;60.80;;;;;;5070161;28;20469;-51
2021/05/10 09:12:43;;;;;;;2.80;2.60;;;25.40;60.50;;;;;;5052606;28;20474;-53
2021/05/10 09:15:29;;;;;;;2.57;2.37;;;25.40;60.40;;;;;;5067762;28;20436;-53
2021/05/10 09:17:56;;;;;;;3.40;2.40;;;24.90;61.00;;;;;;5067582;28;20471;-53
2021/05/10 09:20:28;;;;;;;3.77;2.37;;;25.10;62.00;;;;;;5069003;28;20526;-53
2021/05/10 09:23:02;;;;;;;5.57;2.87;;;25.00;62.40;;;;;;5069974;28;20471;-52
2021/05/10 09:25:39;;;;;;;5.33;2.67;;;24.80;63.20;;;;;;5066464;28;20974;-53
2021/05/10 09:28:08;;;;;;;2.90;2.60;;;24.90;63.00;;;;;;5066665;28;20528;-53
2021/05/10 09:30:34;;;;;;;3.22;2.90;;;24.90;63.70;;;;;;5064604;28;20436;-52
2021/05/10 09:33:00;;;;;;;3.90;2.70;;;25.30;63.40;;;;;;5068065;28;20622;-53
2021/05/10 09:35:28;;;;;;;4.80;2.77;;;25.60;62.50;;;;;;5068142;28;20566;-53
2021/05/10 09:37:57;;;;;;;3.07;2.70;;;27.00;58.50;;;;;;5068697;28;20591;-53
2021/05/10 09:40:24;;;;;;;6.10;2.63;;;27.80;57.10;;;;;;5068272;28;20952;-51
2021/05/10 09:42:53;;;;;;;4.17;2.93;;;28.70;55.30;;;;;;5069208;28;20740;-52
2021/05/10 09:45:29;;;;;;;3.20;2.60;;;29.60;53.80;;;;;;5065966;28;20431;-53
2021/05/10 09:48:16;;;;;;;3.27;2.37;;;29.40;52.30;;;;;;5070035;28;20442;-53
2021/05/10 09:50:51;;;;;;;4.43;2.10;;;29.90;52.90;;;;;;5062811;28;20474;-53
2021/05/10 09:53:28;;;;;;;2.30;1.90;;;31.20;50.50;;;;;;5066543;28;20546;-55
2021/05/10 09:55:56;;;;;;;4.60;2.33;;;30.70;49.80;;;;;;5063501;28;20493;-54
2021/05/10 09:58:23;;;;;;;4.93;1.83;;;31.70;49.30;;;;;;5064896;28;20441;-52
2021/05/10 10:00:57;;;;;;;3.47;2.13;;;31.50;47.90;;;;;;5065740;28;20473;-51
2021/05/10 10:03:26;;;;;;;3.77;2.27;;;31.00;48.80;;;;;;5066438;28;20922;-52
2021/05/10 10:05:53;;;;;;;2.23;1.80;;;31.30;48.10;;;;;;5070738;28;20484;-52
2021/05/10 10:08:19;;;;;;;2.80;2.60;;;30.30;47.60;;;;;;5066723;28;20432;-52
2021/05/10 10:10:46;;;;;;;2.47;1.80;;;30.00;49.10;;;;;;5065674;28;21156;-52
2021/05/10 10:13:14;;;;;;;1.90;1.53;;;29.80;49.80;;;;;;5066918;28;20265;-53
2021/05/10 10:15:41;;;;;;;2.40;1.53;;;28.80;50.20;;;;;;5065478;28;20520;-51
2021/05/10 10:18:09;;;;;;;2.60;2.40;;;27.70;51.20;;;;;;5067037;28;20458;-51
2021/05/10 10:20:37;;;;;;;2.33;1.93;;;27.00;53.30;;;;;;5065572;28;20435;-50
2021/05/10 10:23:07;;;;;;;1.60;1.50;;;27.00;54.10;;;;;;5065239;28;20990;-51
2021/05/10 10:25:37;;;;;;;3.57;1.83;;;26.70;54.20;;;;;;5060105;28;20451;-54
2021/05/10 10:28:05;;;;;;;1.10;1.00;;;26.40;54.10;;;;;;5066641;28;20926;-50
2021/05/10 10:30:32;;;;;;;4.13;1.20;;;26.30;54.40;;;;;;5066287;28;20513;-51
2021/05/10 10:33:02;;;;;;;2.57;1.10;;;25.80;55.30;;;;;;5066188;28;20525;-50
2021/05/10 10:35:29;;;;;;;2.90;1.37;;;25.50;56.60;;;;;;5062091;28;20440;-50
2021/05/10 10:37:56;;;;;;;1.93;1.77;;;25.40;57.40;;;;;;5065194;28;20431;-51
2021/05/10 10:40:21;;;;;;;2.00;1.30;;;25.40;57.70;;;;;;5064782;28;20814;-50
2021/05/10 10:42:48;;;;;;;1.33;1.23;;;25.00;58.00;;;;;;5065446;28;20548;-51
2021/05/10 10:45:22;;;;;;;3.27;1.07;;;25.30;58.10;;;;;;5067467;28;20201;-50
2021/05/10 10:47:59;;;;;;;1.60;1.10;;;24.70;58.10;;;;;;5065990;28;20443;-51
2021/05/10 10:50:26;;;;;;;1.60;1.13;;;24.90;58.90;;;;;;5067117;28;20491;-50
2021/05/10 10:52:52;;;;;;;1.53;1.20;;;25.10;58.70;;;;;;5066853;28;20476;-50
2021/05/10 10:55:43;;;;;;;1.47;1.33;;;24.90;59.10;;;;;;5066782;28;20434;-50
2021/05/10 10:58:12;;;;;;;1.60;1.50;;;24.80;59.50;;;;;;5077521;28;20237;-50
2021/05/10 11:01:07;;;;;;;2.00;1.40;;;24.90;59.70;;;;;;5066543;28;20562;-51
2021/05/10 11:03:35;;;;;;;1.60;1.50;;;24.70;60.20;;;;;;5060974;28;20520;-52
2021/05/10 11:06:01;;;;;;;1.07;0.97;;;24.80;60.20;;;;;;5067010;28;20446;-50
2021/05/10 11:08:39;;;;;;;2.50;1.30;;;25.00;60.30;;;;;;5065065;28;20454;-51
2021/05/10 11:11:09;;;;;;;7.63;1.83;;;24.80;60.50;;;;;;5068086;28;20443;-51
2021/05/10 11:13:40;;;;;;;2.92;1.60;;;24.70;61.30;;;;;;5070014;28;20442;-52
2021/05/10 11:16:14;;;;;;;5.30;1.70;;;24.60;61.10;;;;;;5068521;28;20185;-52
2021/05/10 11:18:47;;;;;;;3.13;1.67;;;24.30;61.50;;;;;;5072198;28;20465;-52
2021/05/10 11:21:22;;;;;;;1.60;1.50;;;24.20;62.60;;;;;;5066863;28;20430;-53
2021/05/10 11:23:57;;;;;;;1.60;1.50;;;23.40;64.10;;;;;;5063589;28;20450;-51
2021/05/10 11:26:44;;;;;;;2.77;2.47;;;23.50;65.90;;;;;;5066200;28;20478;-52
2021/05/10 11:29:11;;;;;;;1.77;1.60;;;23.50;65.80;;;;;;5059823;28;20449;-51
2021/05/10 11:31:42;;;;;;;3.00;1.57;;;23.60;65.30;;;;;;5064234;28;20458;-51
2021/05/10 11:34:12;;;;;;;1.40;1.23;;;23.50;64.50;;;;;;5068134;28;20473;-51
2021/05/10 11:36:39;;;;;;;1.97;1.40;;;23.50;65.20;;;;;;5066799;28;20423;-50
2021/05/10 11:39:08;;;;;;;3.47;1.70;;;23.60;65.00;;;;;;5066066;28;20422;-50
2021/05/10 11:41:36;;;;;;;2.10;1.30;;;23.40;64.40;;;;;;5066604;28;20492;-51
2021/05/10 11:44:04;;;;;;;2.40;1.37;;;23.10;64.80;;;;;;5066058;28;20537;-51
2021/05/10 11:46:50;;;;;;;1.53;1.30;;;23.10;64.80;;;;;;5063854;28;20497;-51
2021/05/10 11:49:31;;;;;;;1.40;1.30;;;23.00;65.20;;;;;;5060019;28;20461;-51
2021/05/10 11:51:59;;;;;;;1.48;1.20;;;22.60;64.90;;;;;;5067924;28;20730;-51
2021/05/10 11:54:28;;;;;;;1.30;1.20;;;22.70;65.70;;;;;;5065962;28;20217;-52
2021/05/10 11:56:56;;;;;;;3.03;1.20;;;22.80;64.50;;;;;;5066822;28;20320;-52
2021/05/10 11:59:51;;;;;;;1.50;1.17;;;23.00;64.20;;;;;;5065276;28;20427;-52
2021/05/10 12:02:23;;;;;;;6.50;1.92;;;23.00;63.50;;;;;;5065613;28;20785;-51
2021/05/10 12:04:58;;;;;;;3.90;1.27;;;22.90;63.80;;;;;;5067513;28;20645;-52
2021/05/10 12:07:28;;;;;;;3.03;1.67;;;22.80;63.80;;;;;;5066576;28;20449;-51
2021/05/10 12:10:08;;;;;;;1.23;0.80;;;22.70;64.30;;;;;;5066974;28;20488;-52
2021/05/10 12:12:38;;;;;;;2.10;1.03;;;22.70;64.20;;;;;;5067141;28;20438;-52
2021/05/10 12:15:16;;;;;;;1.48;0.90;;;22.50;64.90;;;;;;5065788;28;20442;-51
2021/05/10 12:17:44;;;;;;;1.65;0.90;;;22.40;65.40;;;;;;5061717;28;20177;-52
2021/05/10 12:20:23;;;;;;;1.27;1.17;;;22.50;65.80;;;;;;5065851;28;20238;-52
2021/05/10 12:22:51;;;;;;;2.35;1.15;;;22.70;65.70;;;;;;5066681;28;20196;-52
2021/05/10 12:25:21;;;;;;;3.90;1.57;;;22.60;66.20;;;;;;5066986;28;20442;-53
2021/05/10 12:27:48;;;;;;;1.83;1.65;;;22.60;65.70;;;;;;5065701;28;20427;-53
2021/05/10 12:30:28;;;;;;;2.58;1.30;;;22.50;65.80;;;;;;5066784;28;20184;-51
2021/05/10 12:32:55;;;;;;;3.95;1.48;;;22.40;65.70;;;;;;5065722;28;20246;-54
2021/05/10 12:35:23;;;;;;;2.70;1.80;;;22.10;66.20;;;;;;5067141;28;20188;-52
2021/05/10 12:37:51;;;;;;;1.38;1.27;;;22.10;66.80;;;;;;5072237;28;20634;-52
2021/05/10 12:40:20;;;;;;;1.90;1.02;;;22.10;66.50;;;;;;5066802;28;20543;-52
2021/05/10 12:43:14;;;;;;;1.60;1.20;;;22.20;66.10;;;;;;5067922;28;20185;-52
2021/05/10 12:45:45;;;;;;;1.13;1.03;;;22.00;66.90;;;;;;5065957;28;20584;-50
2021/05/10 12:48:18;;;;;;;1.40;0.88;;;22.00;66.20;;;;;;5065165;28;20435;-51
2021/05/10 12:50:48;;;;;;;0.80;0.80;;;22.10;65.10;;;;;;5063372;28;20650;-50
2021/05/10 12:53:14;;;;;;;0.88;0.70;;;21.50;65.90;;;;;;5068319;28;20220;-50
2021/05/10 12:55:41;;;;;;;2.92;0.70;;;21.80;65.80;;;;;;5070025;28;20260;-49